sensor_id;sensor_type;location;lat;lon;timestamp;pressure;altitude;pressure_sealevel;temperature;humidity
80242;BME280;69556;45.004;7.532;2024-03-02T00:00:07;97681.81;;;7.91;100.00
80242;BME280;69556;45.004;7.532;2024-03-02T00:02:44;97683.59;;;7.91;100.00
80242;BME280;69556;45.004;7.532;2024-03-02T00:05:12;97683.47;;;7.94;100.00
80242;BME280;69556;45.004;7.532;2024-03-02T00:07:43;97686.22;;;7.91;100.00
80242;BME280;69556;45.004;7.532;2024-03-02T00:10:10;97685.47;;;7.87;100.00
80242;BME280;69556;45.004;7.532;2024-03-02T00:12:40;97687.75;;;7.96;100.00
80242;BME280;69556;45.004;7.532;2024-03-02T00:17:52;97679.63;;;8.03;100.00
80242;BME280;69556;45.004;7.532;2024-03-02T00:20:21;97681.34;;;8.04;100.00
80242;BME280;69556;45.004;7.532;2024-03-02T00:22:47;97691.84;;;8.04;100.00
80242;BME280;69556;45.004;7.532;2024-03-02T00:25:12;97689.06;;;8.08;100.00
80242;BME280;69556;45.004;7.532;2024-03-02T00:27:37;97691.50;;;8.13;100.00
80242;BME280;69556;45.004;7.532;2024-03-02T00:30:38;97688.66;;;8.19;100.00
80242;BME280;69556;45.004;7.532;2024-03-02T00:33:07;97691.06;;;8.25;100.00
80242;BME280;69556;45.004;7.532;2024-03-02T00:35:33;97687.44;;;8.27;100.00
80242;BME280;69556;45.004;7.532;2024-03-02T00:37:58;97693.53;;;8.29;100.00
80242;BME280;69556;45.004;7.532;2024-03-02T00:40:29;97687.38;;;8.29;100.00
80242;BME280;69556;45.004;7.532;2024-03-02T00:42:55;97692.53;;;8.32;100.00
80242;BME280;69556;45.004;7.532;2024-03-02T00:45:21;97692.44;;;8.35;100.00
80242;BME280;69556;45.004;7.532;2024-03-02T00:47:46;97688.78;;;8.39;100.00
80242;BME280;69556;45.004;7.532;2024-03-02T00:50:13;97682.69;;;8.37;100.00
80242;BME280;69556;45.004;7.532;2024-03-02T00:52:39;97690.22;;;8.46;100.00
80242;BME280;69556;45.004;7.532;2024-03-02T00:55:05;97680.69;;;8.44;100.00
80242;BME280;69556;45.004;7.532;2024-03-02T00:57:33;97688.63;;;8.42;100.00
80242;BME280;69556;45.004;7.532;2024-03-02T01:00:00;97684.91;;;8.48;100.00
80242;BME280;69556;45.004;7.532;2024-03-02T01:02:25;97685.81;;;8.47;100.00
80242;BME280;69556;45.004;7.532;2024-03-02T01:04:50;97690.94;;;8.50;100.00
80242;BME280;69556;45.004;7.532;2024-03-02T01:07:16;97683.00;;;8.51;100.00
80242;BME280;69556;45.004;7.532;2024-03-02T01:09:41;97685.63;;;8.51;100.00
80242;BME280;69556;45.004;7.532;2024-03-02T01:12:07;97686.38;;;8.55;100.00
80242;BME280;69556;45.004;7.532;2024-03-02T01:14:32;97680.44;;;8.50;100.00
80242;BME280;69556;45.004;7.532;2024-03-02T01:16:57;97682.88;;;8.54;100.00
80242;BME280;69556;45.004;7.532;2024-03-02T01:19:23;97690.66;;;8.57;100.00
80242;BME280;69556;45.004;7.532;2024-03-02T01:21:48;97687.19;;;8.57;99.88
80242;BME280;69556;45.004;7.532;2024-03-02T01:24:15;97681.91;;;8.57;100.00
80242;BME280;69556;45.004;7.532;2024-03-02T01:26:41;97687.91;;;8.60;100.00
80242;BME280;69556;45.004;7.532;2024-03-02T01:29:07;97683.00;;;8.51;99.65
80242;BME280;69556;45.004;7.532;2024-03-02T01:31:33;97684.72;;;8.52;100.00
80242;BME280;69556;45.004;7.532;2024-03-02T01:33:58;97688.81;;;8.59;99.81
80242;BME280;69556;45.004;7.532;2024-03-02T01:36:23;97684.50;;;8.58;99.62
80242;BME280;69556;45.004;7.532;2024-03-02T01:38:49;97687.22;;;8.55;99.83
80242;BME280;69556;45.004;7.532;2024-03-02T01:41:15;97679.22;;;8.58;100.00
80242;BME280;69556;45.004;7.532;2024-03-02T01:43:40;97673.97;;;8.58;100.00
80242;BME280;69556;45.004;7.532;2024-03-02T01:46:06;97675.78;;;8.56;100.00
80242;BME280;69556;45.004;7.532;2024-03-02T01:48:31;97681.91;;;8.57;100.00
80242;BME280;69556;45.004;7.532;2024-03-02T01:50:57;97681.06;;;8.56;100.00
80242;BME280;69556;45.004;7.532;2024-03-02T01:53:22;97676.59;;;8.58;100.00
80242;BME280;69556;45.004;7.532;2024-03-02T01:55:48;97671.97;;;8.63;100.00
80242;BME280;69556;45.004;7.532;2024-03-02T01:58:14;97671.06;;;8.64;100.00
80242;BME280;69556;45.004;7.532;2024-03-02T02:00:39;97674.75;;;8.60;100.00
80242;BME280;69556;45.004;7.532;2024-03-02T02:03:05;97676.41;;;8.63;100.00
80242;BME280;69556;45.004;7.532;2024-03-02T02:05:31;97684.41;;;8.60;100.00
80242;BME280;69556;45.004;7.532;2024-03-02T02:07:57;97679.97;;;8.62;100.00
80242;BME280;69556;45.004;7.532;2024-03-02T02:10:23;97675.38;;;8.67;100.00
80242;BME280;69556;45.004;7.532;2024-03-02T02:12:49;97671.97;;;8.63;99.61
80242;BME280;69556;45.004;7.532;2024-03-02T02:15:30;97666.72;;;8.63;100.00
80242;BME280;69556;45.004;7.532;2024-03-02T02:17:57;97670.22;;;8.64;99.32
80242;BME280;69556;45.004;7.532;2024-03-02T02:20:23;97665.94;;;8.61;99.65
80242;BME280;69556;45.004;7.532;2024-03-02T02:22:56;97659.78;;;8.62;99.17
80242;BME280;69556;45.004;7.532;2024-03-02T02:25:22;97660.81;;;8.58;98.57
80242;BME280;69556;45.004;7.532;2024-03-02T02:27:47;97652.75;;;8.63;97.91
80242;BME280;69556;45.004;7.532;2024-03-02T02:30:13;97651.22;;;8.57;97.33
80242;BME280;69556;45.004;7.532;2024-03-02T02:32:38;97643.31;;;8.57;97.26
80242;BME280;69556;45.004;7.532;2024-03-02T02:35:04;97647.59;;;8.60;97.60
80242;BME280;69556;45.004;7.532;2024-03-02T02:37:30;97635.25;;;8.62;97.50
80242;BME280;69556;45.004;7.532;2024-03-02T02:39:55;97639.84;;;8.57;96.91
80242;BME280;69556;45.004;7.532;2024-03-02T02:42:20;97632.09;;;8.54;96.43
80242;BME280;69556;45.004;7.532;2024-03-02T02:44:45;97637.44;;;8.51;95.61
80242;BME280;69556;45.004;7.532;2024-03-02T02:47:11;97634.44;;;8.60;95.70
80242;BME280;69556;45.004;7.532;2024-03-02T02:49:36;97634.53;;;8.58;94.78
80242;BME280;69556;45.004;7.532;2024-03-02T02:52:01;97632.72;;;8.59;95.65
80242;BME280;69556;45.004;7.532;2024-03-02T02:54:27;97637.00;;;8.61;95.43
80242;BME280;69556;45.004;7.532;2024-03-02T02:56:52;97637.06;;;8.60;95.78
80242;BME280;69556;45.004;7.532;2024-03-02T02:59:17;97635.16;;;8.63;96.21
80242;BME280;69556;45.004;7.532;2024-03-02T03:01:43;97637.88;;;8.62;94.29
80242;BME280;69556;45.004;7.532;2024-03-02T03:04:09;97637.69;;;8.66;94.19
80242;BME280;69556;45.004;7.532;2024-03-02T03:06:34;97634.38;;;8.61;93.76
80242;BME280;69556;45.004;7.532;2024-03-02T03:08:59;97638.59;;;8.65;94.32
80242;BME280;69556;45.004;7.532;2024-03-02T03:11:24;97639.50;;;8.64;93.84
80242;BME280;69556;45.004;7.532;2024-03-02T03:13:51;97633.47;;;8.62;93.84
80242;BME280;69556;45.004;7.532;2024-03-02T03:16:18;97634.34;;;8.63;94.29
80242;BME280;69556;45.004;7.532;2024-03-02T03:18:43;97635.91;;;8.67;93.94
80242;BME280;69556;45.004;7.532;2024-03-02T03:21:08;97631.75;;;8.61;92.80
80242;BME280;69556;45.004;7.532;2024-03-02T03:23:34;97634.63;;;8.55;92.23
80242;BME280;69556;45.004;7.532;2024-03-02T03:25:59;97629.84;;;8.65;92.17
80242;BME280;69556;45.004;7.532;2024-03-02T03:28:24;97630.69;;;8.65;92.41
80242;BME280;69556;45.004;7.532;2024-03-02T03:30:49;97634.56;;;8.57;91.75
80242;BME280;69556;45.004;7.532;2024-03-02T03:33:15;97626.50;;;8.61;92.06
80242;BME280;69556;45.004;7.532;2024-03-02T03:35:40;97628.13;;;8.64;91.96
80242;BME280;69556;45.004;7.532;2024-03-02T03:38:06;97625.59;;;8.62;92.25
80242;BME280;69556;45.004;7.532;2024-03-02T03:40:31;97632.41;;;8.66;92.31
80242;BME280;69556;45.004;7.532;2024-03-02T03:42:57;97624.63;;;8.63;90.86
80242;BME280;69556;45.004;7.532;2024-03-02T03:45:23;97638.97;;;8.56;89.71
80242;BME280;69556;45.004;7.532;2024-03-02T03:47:51;97632.91;;;8.54;90.18
80242;BME280;69556;45.004;7.532;2024-03-02T03:50:16;97637.22;;;8.57;89.75
80242;BME280;69556;45.004;7.532;2024-03-02T03:52:41;97638.25;;;8.53;89.83
80242;BME280;69556;45.004;7.532;2024-03-02T03:55:07;97632.13;;;8.52;89.43
80242;BME280;69556;45.004;7.532;2024-03-02T03:57:32;97632.41;;;8.45;89.86
80242;BME280;69556;45.004;7.532;2024-03-02T03:59:58;97622.00;;;8.43;89.98
80242;BME280;69556;45.004;7.532;2024-03-02T04:02:23;97626.25;;;8.46;90.33
80242;BME280;69556;45.004;7.532;2024-03-02T04:04:50;97627.25;;;8.43;90.45
80242;BME280;69556;45.004;7.532;2024-03-02T04:07:15;97631.84;;;8.38;91.10
80242;BME280;69556;45.004;7.532;2024-03-02T04:09:40;97627.34;;;8.40;91.38
80242;BME280;69556;45.004;7.532;2024-03-02T04:12:06;97637.78;;;8.43;91.43
80242;BME280;69556;45.004;7.532;2024-03-02T04:14:31;97637.78;;;8.43;91.14
80242;BME280;69556;45.004;7.532;2024-03-02T04:16:56;97630.78;;;8.42;92.01
80242;BME280;69556;45.004;7.532;2024-03-02T04:19:22;97643.75;;;8.47;92.13
80242;BME280;69556;45.004;7.532;2024-03-02T04:21:47;97630.78;;;8.42;91.88
80242;BME280;69556;45.004;7.532;2024-03-02T04:24:12;97640.22;;;8.48;91.53
80242;BME280;69556;45.004;7.532;2024-03-02T04:26:38;97637.59;;;8.48;93.40
80242;BME280;69556;45.004;7.532;2024-03-02T04:29:03;97629.69;;;8.48;94.89
80242;BME280;69556;45.004;7.532;2024-03-02T04:31:29;97633.84;;;8.53;93.77
80242;BME280;69556;45.004;7.532;2024-03-02T04:33:54;97631.31;;;8.50;94.49
80242;BME280;69556;45.004;7.532;2024-03-02T04:36:19;97639.13;;;8.53;94.85
80242;BME280;69556;45.004;7.532;2024-03-02T04:38:46;97649.63;;;8.53;95.64
80242;BME280;69556;45.004;7.532;2024-03-02T04:41:11;97649.69;;;8.52;95.77
80242;BME280;69556;45.004;7.532;2024-03-02T04:43:37;97656.84;;;8.48;95.63
80242;BME280;69556;45.004;7.532;2024-03-02T04:46:02;97657.44;;;8.55;95.27
80242;BME280;69556;45.004;7.532;2024-03-02T04:48:27;97654.75;;;8.56;94.56
80242;BME280;69556;45.004;7.532;2024-03-02T04:50:53;97652.94;;;8.58;93.43
80242;BME280;69556;45.004;7.532;2024-03-02T04:53:18;97654.56;;;8.61;91.49
80242;BME280;69556;45.004;7.532;2024-03-02T04:55:43;97658.91;;;8.62;89.67
80242;BME280;69556;45.004;7.532;2024-03-02T04:58:09;97658.00;;;8.63;89.75
80242;BME280;69556;45.004;7.532;2024-03-02T05:00:35;97661.72;;;8.57;88.92
80242;BME280;69556;45.004;7.532;2024-03-02T05:03:00;97659.69;;;8.64;88.58
80242;BME280;69556;45.004;7.532;2024-03-02T05:05:26;97664.19;;;8.62;88.52
80242;BME280;69556;45.004;7.532;2024-03-02T05:07:51;97664.22;;;8.60;88.09
80242;BME280;69556;45.004;7.532;2024-03-02T05:10:17;97670.41;;;8.59;88.58
80242;BME280;69556;45.004;7.532;2024-03-02T05:12:42;97672.97;;;8.61;88.13
80242;BME280;69556;45.004;7.532;2024-03-02T05:15:08;97677.38;;;8.60;88.44
80242;BME280;69556;45.004;7.532;2024-03-02T05:17:35;97674.03;;;8.57;88.53
80242;BME280;69556;45.004;7.532;2024-03-02T05:20:01;97673.03;;;8.59;88.44
80242;BME280;69556;45.004;7.532;2024-03-02T05:22:27;97673.03;;;8.59;88.74
80242;BME280;69556;45.004;7.532;2024-03-02T05:24:52;97671.25;;;8.60;88.47
80242;BME280;69556;45.004;7.532;2024-03-02T05:27:18;97679.22;;;8.58;89.32
80242;BME280;69556;45.004;7.532;2024-03-02T05:29:43;97679.22;;;8.58;90.18
80242;BME280;69556;45.004;7.532;2024-03-02T05:32:08;97671.44;;;8.55;91.19
80242;BME280;69556;45.004;7.532;2024-03-02T05:34:34;97686.94;;;8.63;91.47
80242;BME280;69556;45.004;7.532;2024-03-02T05:37:01;97686.13;;;8.61;90.90
80242;BME280;69556;45.004;7.532;2024-03-02T05:39:26;97680.19;;;8.56;90.60
80242;BME280;69556;45.004;7.532;2024-03-02T05:41:51;97684.50;;;8.58;89.76
80242;BME280;69556;45.004;7.532;2024-03-02T05:44:17;97693.34;;;8.56;89.26
80242;BME280;69556;45.004;7.532;2024-03-02T05:46:43;97687.22;;;8.55;89.04
80242;BME280;69556;45.004;7.532;2024-03-02T05:49:09;97688.13;;;8.54;89.12
80242;BME280;69556;45.004;7.532;2024-03-02T05:51:35;97684.59;;;8.55;88.86
80242;BME280;69556;45.004;7.532;2024-03-02T05:54:00;97699.47;;;8.56;88.74
80242;BME280;69556;45.004;7.532;2024-03-02T05:56:25;97689.84;;;8.55;89.81
80242;BME280;69556;45.004;7.532;2024-03-02T05:58:51;97696.16;;;8.51;91.48
80242;BME280;69556;45.004;7.532;2024-03-02T06:01:35;97697.97;;;8.49;93.19
80242;BME280;69556;45.004;7.532;2024-03-02T06:04:00;97699.97;;;8.44;94.93
80242;BME280;69556;45.004;7.532;2024-03-02T06:06:26;97697.97;;;8.49;94.33
80242;BME280;69556;45.004;7.532;2024-03-02T06:08:52;97699.78;;;8.49;94.64
80242;BME280;69556;45.004;7.532;2024-03-02T06:11:19;97707.53;;;8.52;94.75
80242;BME280;69556;45.004;7.532;2024-03-02T06:13:44;97709.19;;;8.54;94.21
80242;BME280;69556;45.004;7.532;2024-03-02T06:16:10;97710.72;;;8.60;93.89
80242;BME280;69556;45.004;7.532;2024-03-02T06:18:35;97721.19;;;8.61;94.88
80242;BME280;69556;45.004;7.532;2024-03-02T06:21:00;97733.44;;;8.62;94.82
80242;BME280;69556;45.004;7.532;2024-03-02T06:23:28;97730.66;;;8.65;94.93
80242;BME280;69556;45.004;7.532;2024-03-02T06:25:54;97735.94;;;8.65;95.66
80242;BME280;69556;45.004;7.532;2024-03-02T06:28:19;97738.56;;;8.65;95.44
80242;BME280;69556;45.004;7.532;2024-03-02T06:30:45;97745.63;;;8.63;95.14
80242;BME280;69556;45.004;7.532;2024-03-02T06:33:11;97739.56;;;8.63;96.01
80242;BME280;69556;45.004;7.532;2024-03-02T06:35:36;97747.19;;;8.69;97.47
80242;BME280;69556;45.004;7.532;2024-03-02T06:38:02;97748.03;;;8.69;98.22
80242;BME280;69556;45.004;7.532;2024-03-02T06:40:27;97749.72;;;8.72;97.36
80242;BME280;69556;45.004;7.532;2024-03-02T06:42:53;97741.88;;;8.70;97.17
80242;BME280;69556;45.004;7.532;2024-03-02T06:45:18;97754.88;;;8.73;97.64
80242;BME280;69556;45.004;7.532;2024-03-02T06:47:43;97748.91;;;8.70;97.98
80242;BME280;69556;45.004;7.532;2024-03-02T06:50:09;97745.53;;;8.66;97.59
80242;BME280;69556;45.004;7.532;2024-03-02T06:52:35;97747.19;;;8.69;97.04
80242;BME280;69556;45.004;7.532;2024-03-02T06:55:00;97746.25;;;8.70;97.66
80242;BME280;69556;45.004;7.532;2024-03-02T06:57:26;97749.53;;;8.76;95.36
80242;BME280;69556;45.004;7.532;2024-03-02T06:59:51;97745.03;;;8.78;94.41
80242;BME280;69556;45.004;7.532;2024-03-02T07:02:20;97743.75;;;8.89;94.50
80242;BME280;69556;45.004;7.532;2024-03-02T07:04:46;97749.69;;;8.94;94.07
80242;BME280;69556;45.004;7.532;2024-03-02T07:07:12;97740.69;;;8.99;94.69
80242;BME280;69556;45.004;7.532;2024-03-02T07:09:37;97748.44;;;9.02;93.87
80242;BME280;69556;45.004;7.532;2024-03-02T07:12:03;97738.44;;;9.10;94.25
80242;BME280;69556;45.004;7.532;2024-03-02T07:14:28;97748.97;;;9.10;94.74
80242;BME280;69556;45.004;7.532;2024-03-02T07:17:13;97753.03;;;9.19;94.64
80242;BME280;69556;45.004;7.532;2024-03-02T07:19:39;97754.72;;;9.20;95.11
80242;BME280;69556;45.004;7.532;2024-03-02T07:22:08;97752.38;;;9.14;95.36
80242;BME280;69556;45.004;7.532;2024-03-02T07:24:41;97762.63;;;9.20;95.74
80242;BME280;69556;45.004;7.532;2024-03-02T07:27:10;97766.78;;;9.25;95.97
80242;BME280;69556;45.004;7.532;2024-03-02T07:29:37;97772.00;;;9.27;96.82
80242;BME280;69556;45.004;7.532;2024-03-02T07:32:02;97771.91;;;9.28;96.60
80242;BME280;69556;45.004;7.532;2024-03-02T07:34:28;97768.97;;;9.36;96.28
80242;BME280;69556;45.004;7.532;2024-03-02T07:36:53;97768.84;;;9.39;97.11
80242;BME280;69556;45.004;7.532;2024-03-02T07:39:19;97765.50;;;9.36;97.68
80242;BME280;69556;45.004;7.532;2024-03-02T07:41:45;97767.78;;;9.43;96.85
80242;BME280;69556;45.004;7.532;2024-03-02T07:44:11;97772.00;;;9.47;96.67
80242;BME280;69556;45.004;7.532;2024-03-02T07:46:42;97784.97;;;9.52;96.40
80242;BME280;69556;45.004;7.532;2024-03-02T07:49:08;97771.81;;;9.52;94.21
80242;BME280;69556;45.004;7.532;2024-03-02T07:51:34;97779.59;;;9.55;92.90
80242;BME280;69556;45.004;7.532;2024-03-02T07:54:00;97786.50;;;9.57;93.34
80242;BME280;69556;45.004;7.532;2024-03-02T07:56:25;97774.91;;;9.61;92.10
80242;BME280;69556;45.004;7.532;2024-03-02T07:58:51;97788.03;;;9.63;92.62
80242;BME280;69556;45.004;7.532;2024-03-02T08:01:17;97787.03;;;9.65;92.55
80242;BME280;69556;45.004;7.532;2024-03-02T08:03:43;97781.88;;;9.62;92.00
80242;BME280;69556;45.004;7.532;2024-03-02T08:06:13;97786.63;;;9.54;92.02
80242;BME280;69556;45.004;7.532;2024-03-02T08:08:40;97791.72;;;9.59;92.14
80242;BME280;69556;45.004;7.532;2024-03-02T08:11:05;97789.03;;;9.60;92.94
80242;BME280;69556;45.004;7.532;2024-03-02T08:13:30;97787.97;;;9.64;92.50
80242;BME280;69556;45.004;7.532;2024-03-02T08:15:56;97798.41;;;9.66;91.90
80242;BME280;69556;45.004;7.532;2024-03-02T08:18:21;97798.16;;;9.72;93.69
80242;BME280;69556;45.004;7.532;2024-03-02T08:20:47;97804.16;;;9.76;91.95
80242;BME280;69556;45.004;7.532;2024-03-02T08:23:13;97802.66;;;9.70;92.45
80242;BME280;69556;45.004;7.532;2024-03-02T08:25:38;97810.44;;;9.73;90.59
80242;BME280;69556;45.004;7.532;2024-03-02T08:28:03;97817.31;;;9.76;89.44
80242;BME280;69556;45.004;7.532;2024-03-02T08:30:29;97817.22;;;9.79;88.77
80242;BME280;69556;45.004;7.532;2024-03-02T08:32:55;97819.84;;;9.79;88.60
80242;BME280;69556;45.004;7.532;2024-03-02T08:35:20;97817.41;;;9.74;89.95
80242;BME280;69556;45.004;7.532;2024-03-02T08:37:47;97810.28;;;9.76;89.98
80242;BME280;69556;45.004;7.532;2024-03-02T08:40:13;97823.25;;;9.81;90.05
80242;BME280;69556;45.004;7.532;2024-03-02T08:42:39;97818.75;;;9.84;90.35
80242;BME280;69556;45.004;7.532;2024-03-02T08:45:05;97821.44;;;9.83;90.34
80242;BME280;69556;45.004;7.532;2024-03-02T08:47:31;97819.72;;;9.82;89.21
80242;BME280;69556;45.004;7.532;2024-03-02T08:49:56;97821.28;;;9.86;89.26
80242;BME280;69556;45.004;7.532;2024-03-02T08:52:21;97828.03;;;9.93;89.59
80242;BME280;69556;45.004;7.532;2024-03-02T08:54:47;97820.56;;;10.02;89.70
80242;BME280;69556;45.004;7.532;2024-03-02T08:57:12;97822.06;;;10.08;88.79
80242;BME280;69556;45.004;7.532;2024-03-02T08:59:38;97812.84;;;10.18;89.38
80242;BME280;69556;45.004;7.532;2024-03-02T09:02:04;97823.13;;;10.24;89.57
80242;BME280;69556;45.004;7.532;2024-03-02T09:04:29;97824.84;;;10.25;90.48
80242;BME280;69556;45.004;7.532;2024-03-02T09:06:54;97824.44;;;10.34;91.40
80242;BME280;69556;45.004;7.532;2024-03-02T09:09:20;97815.63;;;10.35;91.28
80242;BME280;69556;45.004;7.532;2024-03-02T09:11:46;97827.59;;;10.42;92.53
80242;BME280;69556;45.004;7.532;2024-03-02T09:14:12;97830.06;;;10.45;92.28
80242;BME280;69556;45.004;7.532;2024-03-02T09:16:37;97830.94;;;10.46;94.48
80242;BME280;69556;45.004;7.532;2024-03-02T09:19:03;97819.03;;;10.56;95.26
80242;BME280;69556;45.004;7.532;2024-03-02T09:21:28;97828.19;;;10.68;95.64
80242;BME280;69556;45.004;7.532;2024-03-02T09:23:55;97819.31;;;10.69;94.18
80242;BME280;69556;45.004;7.532;2024-03-02T09:26:21;97831.97;;;10.81;90.31
80242;BME280;69556;45.004;7.532;2024-03-02T09:28:47;97824.75;;;10.84;86.52
80242;BME280;69556;45.004;7.532;2024-03-02T09:31:13;97822.53;;;10.94;85.54
80242;BME280;69556;45.004;7.532;2024-03-02T09:33:38;97822.31;;;10.98;84.76
80242;BME280;69556;45.004;7.532;2024-03-02T09:36:16;97825.31;;;11.10;81.59
80242;BME280;69556;45.004;7.532;2024-03-02T09:38:42;97828.50;;;11.16;81.36
80242;BME280;69556;45.004;7.532;2024-03-02T09:41:07;97832.69;;;11.20;80.87
80242;BME280;69556;45.004;7.532;2024-03-02T09:43:32;97836.75;;;11.27;79.73
80242;BME280;69556;45.004;7.532;2024-03-02T09:45:58;97835.19;;;11.23;78.84
80242;BME280;69556;45.004;7.532;2024-03-02T09:48:23;97834.66;;;11.34;79.38
80242;BME280;69556;45.004;7.532;2024-03-02T09:50:49;97834.31;;;11.41;79.18
80242;BME280;69556;45.004;7.532;2024-03-02T09:53:15;97830.75;;;11.42;78.09
80242;BME280;69556;45.004;7.532;2024-03-02T09:55:45;97827.00;;;11.46;78.36
80242;BME280;69556;45.004;7.532;2024-03-02T09:58:11;97830.34;;;11.50;79.24
80242;BME280;69556;45.004;7.532;2024-03-02T10:00:37;97825.75;;;11.54;78.32
80242;BME280;69556;45.004;7.532;2024-03-02T10:03:03;97825.63;;;11.57;77.69
80242;BME280;69556;45.004;7.532;2024-03-02T10:05:30;97834.47;;;11.56;77.50
80242;BME280;69556;45.004;7.532;2024-03-02T10:07:59;97837.03;;;11.57;76.33
80242;BME280;69556;45.004;7.532;2024-03-02T10:10:34;97836.72;;;11.63;76.86
80242;BME280;69556;45.004;7.532;2024-03-02T10:13:10;97836.84;;;11.79;77.83
80242;BME280;69556;45.004;7.532;2024-03-02T10:15:37;97835.47;;;11.89;78.99
80242;BME280;69556;45.004;7.532;2024-03-02T10:18:13;97834.03;;;11.99;77.88
80242;BME280;69556;45.004;7.532;2024-03-02T10:20:39;97830.84;;;12.10;76.72
80242;BME280;69556;45.004;7.532;2024-03-02T10:23:12;97831.00;;;12.07;76.49
80242;BME280;69556;45.004;7.532;2024-03-02T10:25:38;97827.56;;;12.05;76.76
80242;BME280;69556;45.004;7.532;2024-03-02T10:28:04;97830.31;;;12.03;75.38
80242;BME280;69556;45.004;7.532;2024-03-02T10:30:31;97835.13;;;12.12;77.03
80242;BME280;69556;45.004;7.532;2024-03-02T10:32:57;97834.78;;;12.18;77.62
80242;BME280;69556;45.004;7.532;2024-03-02T10:35:22;97832.28;;;12.32;77.76
80242;BME280;69556;45.004;7.532;2024-03-02T10:37:49;97832.88;;;12.38;76.47
80242;BME280;69556;45.004;7.532;2024-03-02T10:40:14;97829.13;;;12.42;76.80
80242;BME280;69556;45.004;7.532;2024-03-02T10:42:41;97830.13;;;12.56;77.45
80242;BME280;69556;45.004;7.532;2024-03-02T10:45:09;97833.38;;;12.61;74.97
80242;BME280;69556;45.004;7.532;2024-03-02T10:47:36;97834.56;;;12.56;76.80
80242;BME280;69556;45.004;7.532;2024-03-02T10:50:04;97837.16;;;12.73;76.76
80242;BME280;69556;45.004;7.532;2024-03-02T10:52:34;97838.31;;;12.52;73.89
80242;BME280;69556;45.004;7.532;2024-03-02T10:54:59;97838.34;;;12.67;75.18
80242;BME280;69556;45.004;7.532;2024-03-02T10:57:26;97824.53;;;12.78;73.56
80242;BME280;69556;45.004;7.532;2024-03-02T11:00:02;97825.03;;;12.85;73.92
80242;BME280;69556;45.004;7.532;2024-03-02T11:02:28;97829.75;;;12.95;73.98
80242;BME280;69556;45.004;7.532;2024-03-02T11:04:56;97816.84;;;12.89;73.15
80242;BME280;69556;45.004;7.532;2024-03-02T11:07:22;97814.28;;;12.88;72.57
80242;BME280;69556;45.004;7.532;2024-03-02T11:09:58;97814.84;;;12.93;73.34
80242;BME280;69556;45.004;7.532;2024-03-02T11:12:31;97813.41;;;13.03;74.78
80242;BME280;69556;45.004;7.532;2024-03-02T11:15:04;97800.94;;;13.20;75.02
80242;BME280;69556;45.004;7.532;2024-03-02T11:17:30;97801.72;;;13.38;73.21
80242;BME280;69556;45.004;7.532;2024-03-02T11:19:56;97806.16;;;13.38;71.30
80242;BME280;69556;45.004;7.532;2024-03-02T11:22:23;97797.06;;;13.57;73.16
80242;BME280;69556;45.004;7.532;2024-03-02T11:24:49;97797.09;;;13.42;69.06
80242;BME280;69556;45.004;7.532;2024-03-02T11:33:02;97772.03;;;13.47;71.03
80242;BME280;69556;45.004;7.532;2024-03-02T11:35:52;97774.41;;;13.52;70.75
80242;BME280;69556;45.004;7.532;2024-03-02T11:38:18;97775.03;;;13.71;69.85
80242;BME280;69556;45.004;7.532;2024-03-02T11:40:44;97773.50;;;13.81;69.54
80242;BME280;69556;45.004;7.532;2024-03-02T11:43:09;97770.66;;;13.70;69.47
80242;BME280;69556;45.004;7.532;2024-03-02T11:45:36;97771.53;;;13.71;69.08
80242;BME280;69556;45.004;7.532;2024-03-02T11:48:05;97767.78;;;13.59;69.44
80242;BME280;69556;45.004;7.532;2024-03-02T11:50:39;97762.78;;;13.68;72.10
80242;BME280;69556;45.004;7.532;2024-03-02T11:53:07;97762.91;;;13.81;71.18
80242;BME280;69556;45.004;7.532;2024-03-02T11:55:38;97763.28;;;13.75;70.41
80242;BME280;69556;45.004;7.532;2024-03-02T11:58:05;97762.34;;;13.76;70.64
80242;BME280;69556;45.004;7.532;2024-03-02T12:00:30;97757.31;;;13.86;71.83
80242;BME280;69556;45.004;7.532;2024-03-02T12:03:01;97754.03;;;13.96;70.70
80242;BME280;69556;45.004;7.532;2024-03-02T12:05:27;97755.91;;;13.80;75.14
80242;BME280;69556;45.004;7.532;2024-03-02T12:08:00;97753.19;;;13.52;77.48
80242;BME280;69556;45.004;7.532;2024-03-02T12:10:26;97749.69;;;13.51;77.81
80242;BME280;69556;45.004;7.532;2024-03-02T12:13:03;97750.38;;;13.39;78.95
80242;BME280;69556;45.004;7.532;2024-03-02T12:15:33;97745.88;;;13.26;78.77
80242;BME280;69556;45.004;7.532;2024-03-02T12:18:00;97740.59;;;13.26;77.92
80242;BME280;69556;45.004;7.532;2024-03-02T12:20:28;97743.41;;;13.07;78.73
80242;BME280;69556;45.004;7.532;2024-03-02T12:22:55;97740.16;;;13.02;79.28
80242;BME280;69556;45.004;7.532;2024-03-02T12:25:22;97732.50;;;13.13;79.13
80242;BME280;69556;45.004;7.532;2024-03-02T12:27:50;97731.56;;;13.14;78.45
80242;BME280;69556;45.004;7.532;2024-03-02T12:30:19;97730.31;;;13.35;80.18
80242;BME280;69556;45.004;7.532;2024-03-02T12:32:45;97723.94;;;13.67;78.62
80242;BME280;69556;45.004;7.532;2024-03-02T12:35:11;97718.38;;;13.86;80.11
80242;BME280;69556;45.004;7.532;2024-03-02T12:40:10;97708.53;;;13.74;75.32
80242;BME280;69556;45.004;7.532;2024-03-02T12:42:36;97707.59;;;13.75;76.29
80242;BME280;69556;45.004;7.532;2024-03-02T12:45:02;97705.53;;;13.80;74.97
80242;BME280;69556;45.004;7.532;2024-03-02T12:47:27;97699.72;;;13.74;75.10
80242;BME280;69556;45.004;7.532;2024-03-02T12:49:52;97686.25;;;13.62;74.46
80242;BME280;69556;45.004;7.532;2024-03-02T12:52:19;97687.88;;;13.65;74.54
80242;BME280;69556;45.004;7.532;2024-03-02T12:54:45;97690.88;;;13.59;74.45
80242;BME280;69556;45.004;7.532;2024-03-02T12:57:10;97673.66;;;13.52;75.50
80242;BME280;69556;45.004;7.532;2024-03-02T12:59:35;97671.78;;;13.68;74.06
80242;BME280;69556;45.004;7.532;2024-03-02T13:02:02;97672.16;;;13.62;74.39
80242;BME280;69556;45.004;7.532;2024-03-02T13:04:28;97673.00;;;13.48;74.87
80242;BME280;69556;45.004;7.532;2024-03-02T13:06:55;97664.53;;;13.42;73.98
80242;BME280;69556;45.004;7.532;2024-03-02T13:09:23;97664.94;;;13.50;74.73
80242;BME280;69556;45.004;7.532;2024-03-02T13:11:48;97675.22;;;13.40;73.29